sensor_id;sensor_type;location;lat;lon;timestamp;temperature;humidity
16674;DHT22;8450;52.654;10.326;2024-03-23T00:55:52;7.80;99.90
16674;DHT22;8450;52.654;10.326;2024-03-23T00:58:17;7.80;99.90
16674;DHT22;8450;52.654;10.326;2024-03-23T01:00:43;7.80;99.90
16674;DHT22;8450;52.654;10.326;2024-03-23T01:03:09;7.70;99.90
16674;DHT22;8450;52.654;10.326;2024-03-23T01:05:34;7.70;99.90
16674;DHT22;8450;52.654;10.326;2024-03-23T01:08:00;7.80;99.90
16674;DHT22;8450;52.654;10.326;2024-03-23T01:10:25;7.80;99.90
16674;DHT22;8450;52.654;10.326;2024-03-23T01:13:05;7.80;99.90
16674;DHT22;8450;52.654;10.326;2024-03-23T01:15:38;7.80;99.90
16674;DHT22;8450;52.654;10.326;2024-03-23T01:18:11;7.70;99.90
16674;DHT22;8450;52.654;10.326;2024-03-23T01:20:44;7.80;99.90
16674;DHT22;8450;52.654;10.326;2024-03-23T01:23:10;7.70;99.90
16674;DHT22;8450;52.654;10.326;2024-03-23T01:25:35;7.70;99.90
16674;DHT22;8450;52.654;10.326;2024-03-23T01:28:01;7.70;99.90
16674;DHT22;8450;52.654;10.326;2024-03-23T01:30:26;7.70;99.90
16674;DHT22;8450;52.654;10.326;2024-03-23T01:32:52;7.60;99.90
16674;DHT22;8450;52.654;10.326;2024-03-23T01:35:17;7.60;99.90
16674;DHT22;8450;52.654;10.326;2024-03-23T01:37:43;7.60;99.90
16674;DHT22;8450;52.654;10.326;2024-03-23T01:40:09;7.70;99.90
16674;DHT22;8450;52.654;10.326;2024-03-23T01:42:34;7.60;99.90
16674;DHT22;8450;52.654;10.326;2024-03-23T01:45:00;7.60;99.90
16674;DHT22;8450;52.654;10.326;2024-03-23T01:47:26;7.50;99.90
16674;DHT22;8450;52.654;10.326;2024-03-23T01:49:51;7.50;99.90
16674;DHT22;8450;52.654;10.326;2024-03-23T01:52:17;7.50;99.90
16674;DHT22;8450;52.654;10.326;2024-03-23T01:54:43;7.40;99.90
16674;DHT22;8450;52.654;10.326;2024-03-23T01:57:10;7.50;99.90
16674;DHT22;8450;52.654;10.326;2024-03-23T01:59:35;7.50;99.90
16674;DHT22;8450;52.654;10.326;2024-03-23T02:02:01;7.50;99.90
16674;DHT22;8450;52.654;10.326;2024-03-23T02:04:28;7.50;99.90
16674;DHT22;8450;52.654;10.326;2024-03-23T02:06:53;7.50;99.90
16674;DHT22;8450;52.654;10.326;2024-03-23T02:09:19;7.60;99.90
16674;DHT22;8450;52.654;10.326;2024-03-23T02:11:44;7.40;99.90
16674;DHT22;8450;52.654;10.326;2024-03-23T02:14:10;7.40;99.90
16674;DHT22;8450;52.654;10.326;2024-03-23T02:16:36;7.40;99.90
16674;DHT22;8450;52.654;10.326;2024-03-23T02:19:01;7.40;99.90
16674;DHT22;8450;52.654;10.326;2024-03-23T02:21:27;7.40;99.90
16674;DHT22;8450;52.654;10.326;2024-03-23T02:23:54;7.50;99.90
16674;DHT22;8450;52.654;10.326;2024-03-23T02:26:19;7.50;99.90
16674;DHT22;8450;52.654;10.326;2024-03-23T02:28:45;7.40;99.90
16674;DHT22;8450;52.654;10.326;2024-03-23T02:31:10;7.50;99.90
16674;DHT22;8450;52.654;10.326;2024-03-23T02:33:36;7.50;99.90
16674;DHT22;8450;52.654;10.326;2024-03-23T02:36:03;7.40;99.90
16674;DHT22;8450;52.654;10.326;2024-03-23T02:38:29;7.40;99.90
16674;DHT22;8450;52.654;10.326;2024-03-23T02:40:54;7.40;99.90
16674;DHT22;8450;52.654;10.326;2024-03-23T02:43:20;7.30;99.90
16674;DHT22;8450;52.654;10.326;2024-03-23T02:45:46;7.30;99.90
16674;DHT22;8450;52.654;10.326;2024-03-23T02:48:11;7.40;99.90
16674;DHT22;8450;52.654;10.326;2024-03-23T02:50:37;7.40;99.90
16674;DHT22;8450;52.654;10.326;2024-03-23T02:53:02;7.40;99.90
16674;DHT22;8450;52.654;10.326;2024-03-23T02:55:28;7.50;99.90
16674;DHT22;8450;52.654;10.326;2024-03-23T02:57:53;7.50;99.90
16674;DHT22;8450;52.654;10.326;2024-03-23T03:00:19;7.50;99.90
16674;DHT22;8450;52.654;10.326;2024-03-23T03:02:44;7.50;99.90
16674;DHT22;8450;52.654;10.326;2024-03-23T03:05:10;7.40;99.90
16674;DHT22;8450;52.654;10.326;2024-03-23T03:07:36;7.40;99.90
16674;DHT22;8450;52.654;10.326;2024-03-23T03:10:04;7.40;99.90
16674;DHT22;8450;52.654;10.326;2024-03-23T03:12:31;7.40;99.90
16674;DHT22;8450;52.654;10.326;2024-03-23T03:14:57;7.30;99.90
16674;DHT22;8450;52.654;10.326;2024-03-23T03:17:23;7.40;99.90
16674;DHT22;8450;52.654;10.326;2024-03-23T03:19:48;7.30;99.90
16674;DHT22;8450;52.654;10.326;2024-03-23T03:22:14;7.20;99.90
16674;DHT22;8450;52.654;10.326;2024-03-23T03:24:39;7.20;99.90
16674;DHT22;8450;52.654;10.326;2024-03-23T03:27:05;7.20;99.90
16674;DHT22;8450;52.654;10.326;2024-03-23T03:29:32;7.30;99.90
16674;DHT22;8450;52.654;10.326;2024-03-23T03:32:01;7.40;99.90
16674;DHT22;8450;52.654;10.326;2024-03-23T03:34:27;7.30;99.90
16674;DHT22;8450;52.654;10.326;2024-03-23T03:36:53;7.30;99.90
16674;DHT22;8450;52.654;10.326;2024-03-23T03:39:18;7.30;99.90
16674;DHT22;8450;52.654;10.326;2024-03-23T03:41:44;7.30;99.90
16674;DHT22;8450;52.654;10.326;2024-03-23T03:44:09;7.30;99.90
16674;DHT22;8450;52.654;10.326;2024-03-23T03:46:35;7.30;99.90
16674;DHT22;8450;52.654;10.326;2024-03-23T03:49:00;7.30;99.90
16674;DHT22;8450;52.654;10.326;2024-03-23T03:51:26;7.30;99.90
16674;DHT22;8450;52.654;10.326;2024-03-23T03:53:51;7.20;99.90
16674;DHT22;8450;52.654;10.326;2024-03-23T03:56:17;7.30;99.90
16674;DHT22;8450;52.654;10.326;2024-03-23T03:58:42;7.20;99.90
16674;DHT22;8450;52.654;10.326;2024-03-23T04:01:08;7.20;99.90
16674;DHT22;8450;52.654;10.326;2024-03-23T04:03:34;7.30;99.90
16674;DHT22;8450;52.654;10.326;2024-03-23T04:05:59;7.30;99.90
16674;DHT22;8450;52.654;10.326;2024-03-23T04:08:25;7.20;99.90
16674;DHT22;8450;52.654;10.326;2024-03-23T04:10:50;7.10;99.90
16674;DHT22;8450;52.654;10.326;2024-03-23T04:13:16;7.20;99.90
16674;DHT22;8450;52.654;10.326;2024-03-23T04:15:42;7.20;99.90
16674;DHT22;8450;52.654;10.326;2024-03-23T04:18:07;7.20;99.90
16674;DHT22;8450;52.654;10.326;2024-03-23T04:20:33;7.30;99.90
16674;DHT22;8450;52.654;10.326;2024-03-23T04:22:59;7.20;99.90
16674;DHT22;8450;52.654;10.326;2024-03-23T04:25:25;7.30;99.90
16674;DHT22;8450;52.654;10.326;2024-03-23T04:27:50;7.20;99.90
16674;DHT22;8450;52.654;10.326;2024-03-23T04:30:17;7.30;99.90
16674;DHT22;8450;52.654;10.326;2024-03-23T04:32:43;7.20;99.90
16674;DHT22;8450;52.654;10.326;2024-03-23T04:35:08;7.20;99.90
16674;DHT22;8450;52.654;10.326;2024-03-23T04:37:35;7.20;99.90
16674;DHT22;8450;52.654;10.326;2024-03-23T04:40:01;7.20;99.90
16674;DHT22;8450;52.654;10.326;2024-03-23T04:42:28;7.20;99.90
16674;DHT22;8450;52.654;10.326;2024-03-23T04:44:53;7.20;99.90
16674;DHT22;8450;52.654;10.326;2024-03-23T04:47:19;7.10;99.90
16674;DHT22;8450;52.654;10.326;2024-03-23T04:49:44;7.10;99.90
16674;DHT22;8450;52.654;10.326;2024-03-23T04:52:10;7.10;99.90
16674;DHT22;8450;52.654;10.326;2024-03-23T04:54:35;7.20;99.90
16674;DHT22;8450;52.654;10.326;2024-03-23T04:57:01;7.10;99.90
16674;DHT22;8450;52.654;10.326;2024-03-23T04:59:27;7.10;99.90
16674;DHT22;8450;52.654;10.326;2024-03-23T05:01:52;7.10;99.90
16674;DHT22;8450;52.654;10.326;2024-03-23T05:04:18;7.00;99.90
16674;DHT22;8450;52.654;10.326;2024-03-23T05:06:43;7.00;99.90
16674;DHT22;8450;52.654;10.326;2024-03-23T05:09:09;7.00;99.90
16674;DHT22;8450;52.654;10.326;2024-03-23T05:11:38;7.00;99.90
16674;DHT22;8450;52.654;10.326;2024-03-23T05:14:04;7.00;99.90
16674;DHT22;8450;52.654;10.326;2024-03-23T05:16:29;7.00;99.90
16674;DHT22;8450;52.654;10.326;2024-03-23T05:18:55;6.90;99.90
16674;DHT22;8450;52.654;10.326;2024-03-23T05:21:20;7.00;99.90
16674;DHT22;8450;52.654;10.326;2024-03-23T05:23:46;6.90;99.90
16674;DHT22;8450;52.654;10.326;2024-03-23T05:26:13;6.90;99.90
16674;DHT22;8450;52.654;10.326;2024-03-23T05:28:39;6.80;99.90
16674;DHT22;8450;52.654;10.326;2024-03-23T05:31:04;6.90;99.90
16674;DHT22;8450;52.654;10.326;2024-03-23T05:33:30;6.90;99.90
16674;DHT22;8450;52.654;10.326;2024-03-23T05:36:00;6.90;99.90
16674;DHT22;8450;52.654;10.326;2024-03-23T05:38:25;6.90;99.90
16674;DHT22;8450;52.654;10.326;2024-03-23T05:40:59;6.80;99.90
16674;DHT22;8450;52.654;10.326;2024-03-23T05:43:26;6.80;99.90
16674;DHT22;8450;52.654;10.326;2024-03-23T05:45:59;6.80;99.90
16674;DHT22;8450;52.654;10.326;2024-03-23T05:48:26;6.80;99.90
16674;DHT22;8450;52.654;10.326;2024-03-23T05:50:52;6.70;99.90
16674;DHT22;8450;52.654;10.326;2024-03-23T05:53:18;6.80;99.90
16674;DHT22;8450;52.654;10.326;2024-03-23T05:55:47;6.70;99.90
16674;DHT22;8450;52.654;10.326;2024-03-23T05:58:15;6.70;99.90
16674;DHT22;8450;52.654;10.326;2024-03-23T06:00:41;6.80;99.90
16674;DHT22;8450;52.654;10.326;2024-03-23T06:03:07;6.70;99.90
16674;DHT22;8450;52.654;10.326;2024-03-23T06:05:33;6.70;99.90
16674;DHT22;8450;52.654;10.326;2024-03-23T06:07:59;6.80;99.90
16674;DHT22;8450;52.654;10.326;2024-03-23T06:10:24;6.80;99.90
16674;DHT22;8450;52.654;10.326;2024-03-23T06:12:50;6.80;99.90
16674;DHT22;8450;52.654;10.326;2024-03-23T06:15:18;6.80;99.90
16674;DHT22;8450;52.654;10.326;2024-03-23T06:17:44;6.80;99.90
16674;DHT22;8450;52.654;10.326;2024-03-23T06:20:10;6.80;99.90
16674;DHT22;8450;52.654;10.326;2024-03-23T06:22:36;6.80;99.90
16674;DHT22;8450;52.654;10.326;2024-03-23T06:25:01;6.90;99.90
16674;DHT22;8450;52.654;10.326;2024-03-23T06:27:27;6.90;99.90
16674;DHT22;8450;52.654;10.326;2024-03-23T06:29:52;6.90;99.90
16674;DHT22;8450;52.654;10.326;2024-03-23T06:32:18;6.80;99.90
16674;DHT22;8450;52.654;10.326;2024-03-23T06:34:44;6.80;99.90
16674;DHT22;8450;52.654;10.326;2024-03-23T06:37:10;6.90;99.90
16674;DHT22;8450;52.654;10.326;2024-03-23T06:39:36;6.90;99.90
16674;DHT22;8450;52.654;10.326;2024-03-23T06:42:02;6.80;99.90
16674;DHT22;8450;52.654;10.326;2024-03-23T06:44:28;6.80;99.90
16674;DHT22;8450;52.654;10.326;2024-03-23T06:46:54;6.70;99.90
16674;DHT22;8450;52.654;10.326;2024-03-23T06:49:20;6.80;99.90
16674;DHT22;8450;52.654;10.326;2024-03-23T06:51:45;6.80;99.90
16674;DHT22;8450;52.654;10.326;2024-03-23T06:54:11;6.80;99.90
16674;DHT22;8450;52.654;10.326;2024-03-23T06:56:37;6.70;99.90
16674;DHT22;8450;52.654;10.326;2024-03-23T06:59:02;6.70;99.90
16674;DHT22;8450;52.654;10.326;2024-03-23T07:01:28;6.70;99.90
16674;DHT22;8450;52.654;10.326;2024-03-23T07:03:54;6.80;99.90
16674;DHT22;8450;52.654;10.326;2024-03-23T07:06:20;6.80;99.90
16674;DHT22;8450;52.654;10.326;2024-03-23T07:08:45;6.90;99.90
16674;DHT22;8450;52.654;10.326;2024-03-23T07:11:11;6.80;99.90
16674;DHT22;8450;52.654;10.326;2024-03-23T07:13:36;6.80;99.90
16674;DHT22;8450;52.654;10.326;2024-03-23T07:16:02;6.70;99.90
16674;DHT22;8450;52.654;10.326;2024-03-23T07:18:28;6.80;99.90
16674;DHT22;8450;52.654;10.326;2024-03-23T07:20:57;6.80;99.90
16674;DHT22;8450;52.654;10.326;2024-03-23T07:23:24;6.80;99.90
16674;DHT22;8450;52.654;10.326;2024-03-23T07:26:19;6.80;99.90
16674;DHT22;8450;52.654;10.326;2024-03-23T07:28:44;6.80;99.90
16674;DHT22;8450;52.654;10.326;2024-03-23T07:31:12;6.80;99.90
16674;DHT22;8450;52.654;10.326;2024-03-23T07:33:45;6.80;99.90
16674;DHT22;8450;52.654;10.326;2024-03-23T07:36:11;6.80;99.90
16674;DHT22;8450;52.654;10.326;2024-03-23T07:38:36;6.80;99.90
16674;DHT22;8450;52.654;10.326;2024-03-23T07:41:08;6.90;99.90
16674;DHT22;8450;52.654;10.326;2024-03-23T07:43:35;6.80;99.90
16674;DHT22;8450;52.654;10.326;2024-03-23T07:46:01;6.80;99.90
16674;DHT22;8450;52.654;10.326;2024-03-23T07:48:29;6.90;99.90
16674;DHT22;8450;52.654;10.326;2024-03-23T07:51:08;6.90;99.90
16674;DHT22;8450;52.654;10.326;2024-03-23T07:53:35;6.90;99.90
16674;DHT22;8450;52.654;10.326;2024-03-23T07:56:09;7.00;99.90
16674;DHT22;8450;52.654;10.326;2024-03-23T07:58:36;7.00;99.90
16674;DHT22;8450;52.654;10.326;2024-03-23T08:01:10;7.10;99.90
16674;DHT22;8450;52.654;10.326;2024-03-23T08:03:37;7.20;99.90
16674;DHT22;8450;52.654;10.326;2024-03-23T08:08:35;7.30;99.90
16674;DHT22;8450;52.654;10.326;2024-03-23T08:11:01;7.20;99.90
16674;DHT22;8450;52.654;10.326;2024-03-23T08:13:27;7.20;99.90
16674;DHT22;8450;52.654;10.326;2024-03-23T08:15:56;7.20;99.90
16674;DHT22;8450;52.654;10.326;2024-03-23T08:18:22;7.30;99.90
16674;DHT22;8450;52.654;10.326;2024-03-23T08:23:28;7.60;99.90
16674;DHT22;8450;52.654;10.326;2024-03-23T08:26:00;7.70;99.90
16674;DHT22;8450;52.654;10.326;2024-03-23T08:28:27;7.90;99.90
16674;DHT22;8450;52.654;10.326;2024-03-23T08:30:54;7.90;99.90
16674;DHT22;8450;52.654;10.326;2024-03-23T08:33:20;8.10;99.90
16674;DHT22;8450;52.654;10.326;2024-03-23T08:36:06;8.20;99.90
16674;DHT22;8450;52.654;10.326;2024-03-23T08:38:32;8.40;99.90
16674;DHT22;8450;52.654;10.326;2024-03-23T08:41:04;8.50;99.90
16674;DHT22;8450;52.654;10.326;2024-03-23T08:43:32;8.60;99.90
16674;DHT22;8450;52.654;10.326;2024-03-23T08:46:14;8.30;99.90
16674;DHT22;8450;52.654;10.326;2024-03-23T08:48:45;8.20;99.90
16674;DHT22;8450;52.654;10.326;2024-03-23T08:51:13;8.40;99.90
16674;DHT22;8450;52.654;10.326;2024-03-23T08:53:39;8.10;99.90
16674;DHT22;8450;52.654;10.326;2024-03-23T08:56:06;8.30;99.90
16674;DHT22;8450;52.654;10.326;2024-03-23T08:58:32;8.40;99.90
16674;DHT22;8450;52.654;10.326;2024-03-23T09:01:13;8.60;99.90
16674;DHT22;8450;52.654;10.326;2024-03-23T09:03:39;8.50;99.90
16674;DHT22;8450;52.654;10.326;2024-03-23T09:06:08;8.80;99.90
16674;DHT22;8450;52.654;10.326;2024-03-23T09:08:34;9.00;99.90
16674;DHT22;8450;52.654;10.326;2024-03-23T09:11:05;9.10;99.90
16674;DHT22;8450;52.654;10.326;2024-03-23T09:13:34;9.40;99.90
16674;DHT22;8450;52.654;10.326;2024-03-23T09:16:00;9.10;99.90
16674;DHT22;8450;52.654;10.326;2024-03-23T09:18:26;9.10;99.90
16674;DHT22;8450;52.654;10.326;2024-03-23T09:20:51;9.10;99.90
16674;DHT22;8450;52.654;10.326;2024-03-23T09:23:19;9.00;99.90
16674;DHT22;8450;52.654;10.326;2024-03-23T09:25:44;9.10;99.90
16674;DHT22;8450;52.654;10.326;2024-03-23T09:28:10;9.10;99.90
16674;DHT22;8450;52.654;10.326;2024-03-23T09:30:35;9.50;99.90
16674;DHT22;8450;52.654;10.326;2024-03-23T09:33:02;9.50;99.90
16674;DHT22;8450;52.654;10.326;2024-03-23T09:35:28;9.40;99.90
16674;DHT22;8450;52.654;10.326;2024-03-23T09:37:54;9.50;99.90
16674;DHT22;8450;52.654;10.326;2024-03-23T09:40:19;9.30;99.90
16674;DHT22;8450;52.654;10.326;2024-03-23T09:42:52;9.30;99.90
16674;DHT22;8450;52.654;10.326;2024-03-23T09:45:21;9.30;99.90
16674;DHT22;8450;52.654;10.326;2024-03-23T09:47:47;9.30;99.90
16674;DHT22;8450;52.654;10.326;2024-03-23T09:50:13;9.20;99.90
16674;DHT22;8450;52.654;10.326;2024-03-23T09:52:39;8.80;99.90
16674;DHT22;8450;52.654;10.326;2024-03-23T09:55:06;8.80;99.90
16674;DHT22;8450;52.654;10.326;2024-03-23T09:57:31;8.70;99.90
16674;DHT22;8450;52.654;10.326;2024-03-23T09:59:57;8.80;99.90
16674;DHT22;8450;52.654;10.326;2024-03-23T10:02:23;8.80;99.90
16674;DHT22;8450;52.654;10.326;2024-03-23T10:04:49;9.00;99.90
16674;DHT22;8450;52.654;10.326;2024-03-23T10:07:21;9.40;99.90
16674;DHT22;8450;52.654;10.326;2024-03-23T10:09:50;9.70;99.90
16674;DHT22;8450;52.654;10.326;2024-03-23T10:12:19;10.00;99.90
16674;DHT22;8450;52.654;10.326;2024-03-23T10:14:45;10.40;99.90
16674;DHT22;8450;52.654;10.326;2024-03-23T10:17:21;10.80;99.90
16674;DHT22;8450;52.654;10.326;2024-03-23T10:19:51;10.80;99.90
16674;DHT22;8450;52.654;10.326;2024-03-23T10:22:21;10.30;99.90
16674;DHT22;8450;52.654;10.326;2024-03-23T10:24:47;10.00;99.90
16674;DHT22;8450;52.654;10.326;2024-03-23T10:29:49;9.70;99.90
16674;DHT22;8450;52.654;10.326;2024-03-23T10:32:16;10.00;99.90
16674;DHT22;8450;52.654;10.326;2024-03-23T10:34:43;10.40;99.90
16674;DHT22;8450;52.654;10.326;2024-03-23T10:37:09;10.50;99.90
16674;DHT22;8450;52.654;10.326;2024-03-23T10:39:37;10.90;99.90
16674;DHT22;8450;52.654;10.326;2024-03-23T10:42:06;11.30;99.90
16674;DHT22;8450;52.654;10.326;2024-03-23T10:44:38;11.20;99.90
16674;DHT22;8450;52.654;10.326;2024-03-23T10:47:05;11.10;99.90
16674;DHT22;8450;52.654;10.326;2024-03-23T10:49:32;11.10;99.90
16674;DHT22;8450;52.654;10.326;2024-03-23T10:52:02;11.10;99.90
16674;DHT22;8450;52.654;10.326;2024-03-23T10:54:30;10.80;99.90
16674;DHT22;8450;52.654;10.326;2024-03-23T10:59:27;10.50;99.90
16674;DHT22;8450;52.654;10.326;2024-03-23T11:01:57;10.30;99.90
16674;DHT22;8450;52.654;10.326;2024-03-23T11:04:34;10.30;99.90
16674;DHT22;8450;52.654;10.326;2024-03-23T11:07:00;10.00;99.90
16674;DHT22;8450;52.654;10.326;2024-03-23T11:09:46;10.00;99.90
16674;DHT22;8450;52.654;10.326;2024-03-23T11:17:23;10.30;99.90
16674;DHT22;8450;52.654;10.326;2024-03-23T11:20:02;10.20;99.90
16674;DHT22;8450;52.654;10.326;2024-03-23T11:25:21;9.30;99.90
16674;DHT22;8450;52.654;10.326;2024-03-23T11:27:50;8.70;99.90
16674;DHT22;8450;52.654;10.326;2024-03-23T11:30:20;8.70;99.90
16674;DHT22;8450;52.654;10.326;2024-03-23T11:32:54;8.30;99.90
16674;DHT22;8450;52.654;10.326;2024-03-23T11:35:39;7.90;99.90
16674;DHT22;8450;52.654;10.326;2024-03-23T11:40:39;7.40;99.90
16674;DHT22;8450;52.654;10.326;2024-03-23T11:43:12;7.30;99.90
16674;DHT22;8450;52.654;10.326;2024-03-23T11:45:39;7.40;99.90
16674;DHT22;8450;52.654;10.326;2024-03-23T11:48:07;7.60;99.90
16674;DHT22;8450;52.654;10.326;2024-03-23T11:50:36;7.60;99.90
16674;DHT22;8450;52.654;10.326;2024-03-23T11:53:22;7.50;99.90
16674;DHT22;8450;52.654;10.326;2024-03-23T11:55:54;7.70;99.90
16674;DHT22;8450;52.654;10.326;2024-03-23T11:58:21;7.50;99.90
16674;DHT22;8450;52.654;10.326;2024-03-23T12:03:17;8.70;99.90
16674;DHT22;8450;52.654;10.326;2024-03-23T12:05:48;9.10;99.90
16674;DHT22;8450;52.654;10.326;2024-03-23T12:08:28;9.20;99.90
16674;DHT22;8450;52.654;10.326;2024-03-23T12:11:11;9.30;99.90
16674;DHT22;8450;52.654;10.326;2024-03-23T12:13:37;9.60;99.90
16674;DHT22;8450;52.654;10.326;2024-03-23T12:16:14;9.20;99.90
16674;DHT22;8450;52.654;10.326;2024-03-23T12:18:41;9.70;99.90
16674;DHT22;8450;52.654;10.326;2024-03-23T12:21:07;9.40;99.90
16674;DHT22;8450;52.654;10.326;2024-03-23T12:23:32;9.70;99.90
16674;DHT22;8450;52.654;10.326;2024-03-23T12:25:58;9.40;99.90
16674;DHT22;8450;52.654;10.326;2024-03-23T12:28:24;8.70;99.90
16674;DHT22;8450;52.654;10.326;2024-03-23T12:30:51;8.90;99.90
16674;DHT22;8450;52.654;10.326;2024-03-23T12:33:17;9.10;99.90
16674;DHT22;8450;52.654;10.326;2024-03-23T12:35:43;8.90;99.90
16674;DHT22;8450;52.654;10.326;2024-03-23T12:38:08;9.00;99.90
16674;DHT22;8450;52.654;10.326;2024-03-23T12:40:34;9.00;99.90
16674;DHT22;8450;52.654;10.326;2024-03-23T12:42:59;9.30;99.90
16674;DHT22;8450;52.654;10.326;2024-03-23T12:45:25;9.90;99.90
16674;DHT22;8450;52.654;10.326;2024-03-23T12:47:50;9.70;99.90
16674;DHT22;8450;52.654;10.326;2024-03-23T12:50:19;9.40;99.90
16674;DHT22;8450;52.654;10.326;2024-03-23T12:52:44;8.80;99.90
16674;DHT22;8450;52.654;10.326;2024-03-23T12:55:10;8.90;99.90
16674;DHT22;8450;52.654;10.326;2024-03-23T12:57:36;9.20;99.90
16674;DHT22;8450;52.654;10.326;2024-03-23T13:00:01;9.60;99.90
16674;DHT22;8450;52.654;10.326;2024-03-23T13:02:28;9.60;99.90
16674;DHT22;8450;52.654;10.326;2024-03-23T13:04:54;9.70;99.90
16674;DHT22;8450;52.654;10.326;2024-03-23T13:07:21;10.00;99.90
16674;DHT22;8450;52.654;10.326;2024-03-23T13:09:49;10.30;99.90
16674;DHT22;8450;52.654;10.326;2024-03-23T13:12:15;10.70;99.90
16674;DHT22;8450;52.654;10.326;2024-03-23T13:14:41;10.60;99.90
16674;DHT22;8450;52.654;10.326;2024-03-23T13:17:07;10.40;99.90
16674;DHT22;8450;52.654;10.326;2024-03-23T13:19:33;10.40;99.90
16674;DHT22;8450;52.654;10.326;2024-03-23T13:21:59;10.80;99.90
16674;DHT22;8450;52.654;10.326;2024-03-23T13:24:26;10.80;99.90
16674;DHT22;8450;52.654;10.326;2024-03-23T13:26:52;10.20;99.90
16674;DHT22;8450;52.654;10.326;2024-03-23T13:29:19;10.10;99.90
16674;DHT22;8450;52.654;10.326;2024-03-23T13:31:46;10.00;99.90
16674;DHT22;8450;52.654;10.326;2024-03-23T13:34:13;10.40;99.90
16674;DHT22;8450;52.654;10.326;2024-03-23T13:36:45;10.00;99.90
16674;DHT22;8450;52.654;10.326;2024-03-23T13:39:12;9.90;99.90
16674;DHT22;8450;52.654;10.326;2024-03-23T13:41:39;9.90;99.90
16674;DHT22;8450;52.654;10.326;2024-03-23T13:44:06;9.50;99.90
16674;DHT22;8450;52.654;10.326;2024-03-23T13:46:32;9.50;99.90
16674;DHT22;8450;52.654;10.326;2024-03-23T13:48:57;9.40;99.90
16674;DHT22;8450;52.654;10.326;2024-03-23T13:51:23;10.10;99.90
16674;DHT22;8450;52.654;10.326;2024-03-23T13:53:50;9.80;99.90
16674;DHT22;8450;52.654;10.326;2024-03-23T13:56:16;10.20;99.90
16674;DHT22;8450;52.654;10.326;2024-03-23T13:58:42;10.10;99.90
16674;DHT22;8450;52.654;10.326;2024-03-23T14:01:11;10.20;99.90
16674;DHT22;8450;52.654;10.326;2024-03-23T14:03:37;10.30;99.90
16674;DHT22;8450;52.654;10.326;2024-03-23T14:06:03;10.60;99.90
16674;DHT22;8450;52.654;10.326;2024-03-23T14:08:28;10.20;99.90
16674;DHT22;8450;52.654;10.326;2024-03-23T14:10:54;10.20;99.90
16674;DHT22;8450;52.654;10.326;2024-03-23T14:13:19;10.10;99.90
16674;DHT22;8450;52.654;10.326;2024-03-23T14:15:45;9.70;99.90
16674;DHT22;8450;52.654;10.326;2024-03-23T14:18:11;10.00;99.90
16674;DHT22;8450;52.654;10.326;2024-03-23T14:20:36;10.00;99.90
16674;DHT22;8450;52.654;10.326;2024-03-23T14:23:02;9.70;99.90
16674;DHT22;8450;52.654;10.326;2024-03-23T14:25:28;9.60;99.90
16674;DHT22;8450;52.654;10.326;2024-03-23T14:27:55;9.90;99.90
16674;DHT22;8450;52.654;10.326;2024-03-23T14:30:20;10.00;99.90
16674;DHT22;8450;52.654;10.326;2024-03-23T14:32:46;9.60;99.90
16674;DHT22;8450;52.654;10.326;2024-03-23T14:35:11;9.70;99.90
16674;DHT22;8450;52.654;10.326;2024-03-23T14:37:37;9.70;99.90
16674;DHT22;8450;52.654;10.326;2024-03-23T14:40:04;9.70;99.90
16674;DHT22;8450;52.654;10.326;2024-03-23T14:42:29;9.70;99.90
16674;DHT22;8450;52.654;10.326;2024-03-23T14:44:56;9.90;99.90
16674;DHT22;8450;52.654;10.326;2024-03-23T14:47:22;9.90;99.90
16674;DHT22;8450;52.654;10.326;2024-03-23T14:49:47;9.70;99.90
16674;DHT22;8450;52.654;10.326;2024-03-23T14:52:19;9.80;99.90
16674;DHT22;8450;52.654;10.326;2024-03-23T14:54:45;9.60;99.90
16674;DHT22;8450;52.654;10.326;2024-03-23T14:57:11;9.40;99.90
16674;DHT22;8450;52.654;10.326;2024-03-23T14:59:37;8.90;99.90
16674;DHT22;8450;52.654;10.326;2024-03-23T15:02:09;8.70;99.90
16674;DHT22;8450;52.654;10.326;2024-03-23T15:04:34;8.70;99.90
16674;DHT22;8450;52.654;10.326;2024-03-23T15:07:00;8.60;99.90
16674;DHT22;8450;52.654;10.326;2024-03-23T15:09:26;8.40;99.90
16674;DHT22;8450;52.654;10.326;2024-03-23T15:11:52;8.40;99.90
16674;DHT22;8450;52.654;10.326;2024-03-23T15:14:20;8.30;99.90
16674;DHT22;8450;52.654;10.326;2024-03-23T15:16:46;8.40;99.90
16674;DHT22;8450;52.654;10.326;2024-03-23T15:19:14;8.40;99.90
16674;DHT22;8450;52.654;10.326;2024-03-23T15:21:40;8.30;99.90
16674;DHT22;8450;52.654;10.326;2024-03-23T15:24:06;8.20;99.90
16674;DHT22;8450;52.654;10.326;2024-03-23T15:26:31;8.70;99.90
16674;DHT22;8450;52.654;10.326;2024-03-23T15:28:58;9.00;99.90
16674;DHT22;8450;52.654;10.326;2024-03-23T15:31:23;8.90;99.90
16674;DHT22;8450;52.654;10.326;2024-03-23T15:33:49;8.80;99.90
16674;DHT22;8450;52.654;10.326;2024-03-23T15:36:15;8.80;99.90
16674;DHT22;8450;52.654;10.326;2024-03-23T15:38:40;8.70;99.90
16674;DHT22;8450;52.654;10.326;2024-03-23T15:41:06;8.80;99.90
16674;DHT22;8450;52.654;10.326;2024-03-23T15:43:32;8.70;99.90
16674;DHT22;8450;52.654;10.326;2024-03-23T15:46:02;8.80;99.90
16674;DHT22;8450;52.654;10.326;2024-03-23T15:48:29;9.10;99.90
16674;DHT22;8450;52.654;10.326;2024-03-23T15:50:59;9.30;99.90
16674;DHT22;8450;52.654;10.326;2024-03-23T15:53:26;8.90;99.90
16674;DHT22;8450;52.654;10.326;2024-03-23T15:56:02;8.90;99.90
16674;DHT22;8450;52.654;10.326;2024-03-23T15:58:29;8.60;99.90
16674;DHT22;8450;52.654;10.326;2024-03-23T16:00:58;8.30;99.90
16674;DHT22;8450;52.654;10.326;2024-03-23T16:03:25;8.50;99.90
16674;DHT22;8450;52.654;10.326;2024-03-23T16:06:02;8.40;99.90
16674;DHT22;8450;52.654;10.326;2024-03-23T16:08:29;8.40;99.90
16674;DHT22;8450;52.654;10.326;2024-03-23T16:10:59;8.20;99.90
16674;DHT22;8450;52.654;10.326;2024-03-23T16:13:24;8.40;99.90
16674;DHT22;8450;52.654;10.326;2024-03-23T16:18:25;8.40;99.90
16674;DHT22;8450;52.654;10.326;2024-03-23T16:20:54;8.00;99.90
16674;DHT22;8450;52.654;10.326;2024-03-23T16:23:20;8.10;99.90
16674;DHT22;8450;52.654;10.326;2024-03-23T16:25:47;7.80;99.90
16674;DHT22;8450;52.654;10.326;2024-03-23T16:28:15;7.90;99.90
16674;DHT22;8450;52.654;10.326;2024-03-23T16:30:40;8.10;99.90
16674;DHT22;8450;52.654;10.326;2024-03-23T16:33:07;7.90;99.90
16674;DHT22;8450;52.654;10.326;2024-03-23T16:35:34;8.00;99.90
16674;DHT22;8450;52.654;10.326;2024-03-23T16:38:00;7.60;99.90
16674;DHT22;8450;52.654;10.326;2024-03-23T16:43:03;7.80;99.90
16674;DHT22;8450;52.654;10.326;2024-03-23T16:45:28;7.70;99.90
16674;DHT22;8450;52.654;10.326;2024-03-23T16:47:54;7.50;99.90
16674;DHT22;8450;52.654;10.326;2024-03-23T16:50:20;7.30;99.90
16674;DHT22;8450;52.654;10.326;2024-03-23T16:52:45;7.40;99.90
16674;DHT22;8450;52.654;10.326;2024-03-23T16:55:11;7.30;99.90
16674;DHT22;8450;52.654;10.326;2024-03-23T16:57:36;7.30;99.90
16674;DHT22;8450;52.654;10.326;2024-03-23T17:00:02;7.20;99.90
16674;DHT22;8450;52.654;10.326;2024-03-23T17:02:27;7.10;99.90
16674;DHT22;8450;52.654;10.326;2024-03-23T17:04:53;7.00;99.90
16674;DHT22;8450;52.654;10.326;2024-03-23T17:07:18;6.90;99.90